Time;durP1;ratioP1;P1;durP2;ratioP2;P2;SDS_P1;SDS_P2;PMS_P1;PMS_P2;Temp;Humidity;BMP_temperature;BMP_pressure;BME280_temperature;BME280_humidity;BME280_pressure;Samples;Min_cycle;Max_cycle;Signal;HPM_P1;HPM_P2
2022/07/08 00:01:38;;;;;;;;;;;15.30;99.90;;;;;;5048689;28;19921;-70
2022/07/08 00:04:04;;;;;;;;;;;15.20;99.90;;;;;;5036185;28;20222;-70
2022/07/08 00:06:29;;;;;;;;;;;15.30;99.90;;;;;;5029246;28;19924;-70
2022/07/08 00:08:56;;;;;;;;;;;15.30;99.90;;;;;;5028286;28;19940;-70
2022/07/08 00:11:22;;;;;;;;;;;15.30;99.90;;;;;;5028299;28;19917;-70
2022/07/08 00:13:47;;;;;;;;;;;15.30;99.90;;;;;;5038172;28;19927;-70
2022/07/08 00:16:13;;;;;;;;;;;15.30;99.90;;;;;;5048993;28;20417;-71
2022/07/08 00:18:38;;;;;;;;;;;15.30;99.90;;;;;;5046577;28;19921;-71
2022/07/08 00:21:04;;;;;;;;;;;15.20;99.90;;;;;;5041261;28;19960;-71
2022/07/08 00:23:30;;;;;;;;;;;15.20;99.90;;;;;;5047116;28;19963;-71
2022/07/08 00:25:55;;;;;;;;;;;15.20;99.90;;;;;;5049483;28;19920;-70
2022/07/08 00:28:21;;;;;;;;;;;15.30;99.90;;;;;;5046695;28;20453;-70
2022/07/08 00:30:46;;;;;;;;;;;15.20;99.90;;;;;;5045175;28;20007;-70
2022/07/08 00:33:12;;;;;;;;;;;15.20;99.90;;;;;;5027602;28;20012;-70
2022/07/08 00:35:37;;;;;;;;;;;15.20;99.90;;;;;;5028526;28;20380;-70
2022/07/08 00:38:03;;;;;;;;;;;15.20;99.90;;;;;;5033641;28;20001;-70
2022/07/08 00:40:28;;;;;;;;;;;15.10;99.90;;;;;;5047161;28;19923;-70
2022/07/08 00:42:54;;;;;;;;;;;15.10;99.90;;;;;;5047017;28;20340;-70
2022/07/08 00:45:20;;;;;;;;;;;15.10;99.90;;;;;;5035341;28;20373;-71
2022/07/08 00:47:45;;;;;;;;;;;15.10;99.90;;;;;;5039785;28;19921;-70
2022/07/08 00:50:11;;;;;;;;;;;15.00;99.90;;;;;;5047012;28;19928;-70
2022/07/08 00:52:37;;;;;;;;;;;15.10;99.90;;;;;;5048916;28;19916;-71
2022/07/08 00:55:03;;;;;;;;;;;15.00;99.90;;;;;;5039289;28;20054;-70
2022/07/08 00:57:29;;;;;;;;;;;15.00;99.90;;;;;;5047934;28;20016;-71
2022/07/08 00:59:55;;;;;;;;;;;15.00;99.90;;;;;;5048518;28;19916;-70
2022/07/08 01:02:21;;;;;;;;;;;14.90;99.90;;;;;;5043621;28;19924;-70
2022/07/08 01:04:47;;;;;;;;;;;14.90;99.90;;;;;;5037470;28;19921;-71
2022/07/08 01:07:13;;;;;;;;;;;14.90;99.90;;;;;;5045799;28;19916;-71
2022/07/08 01:09:38;;;;;;;;;;;14.80;99.90;;;;;;5046825;28;19917;-70
2022/07/08 01:12:04;;;;;;;;;;;14.70;99.90;;;;;;5041425;28;19924;-71
2022/07/08 01:14:30;;;;;;;;;;;14.70;99.90;;;;;;5047200;28;20312;-70
2022/07/08 01:16:56;;;;;;;;;;;14.70;99.90;;;;;;5028323;28;19968;-70
2022/07/08 01:19:21;;;;;;;;;;;14.70;99.90;;;;;;5030115;28;19928;-70
2022/07/08 01:21:47;;;;;;;;;;;14.70;99.90;;;;;;5027635;28;19917;-70
2022/07/08 01:24:12;;;;;;;;;;;14.70;99.90;;;;;;5027678;28;19978;-70
2022/07/08 01:26:38;;;;;;;;;;;14.60;99.90;;;;;;5030128;28;19931;-71
2022/07/08 01:29:03;;;;;;;;;;;14.60;99.90;;;;;;5037535;28;20360;-70
2022/07/08 01:31:29;;;;;;;;;;;14.50;99.90;;;;;;5046647;28;19917;-70
2022/07/08 01:33:54;;;;;;;;;;;14.50;99.90;;;;;;5048534;28;20391;-71
2022/07/08 01:36:20;;;;;;;;;;;14.50;99.90;;;;;;5046143;28;20090;-70
2022/07/08 01:38:45;;;;;;;;;;;14.50;99.90;;;;;;5039355;28;20307;-71
2022/07/08 01:41:11;;;;;;;;;;;14.40;99.90;;;;;;5047622;28;19917;-71
2022/07/08 01:43:37;;;;;;;;;;;14.40;99.90;;;;;;5046131;28;20003;-71
2022/07/08 01:46:02;;;;;;;;;;;14.40;99.90;;;;;;5045807;28;19916;-70
2022/07/08 01:48:28;;;;;;;;;;;14.40;99.90;;;;;;5029105;28;20490;-70
2022/07/08 01:50:53;;;;;;;;;;;14.40;99.90;;;;;;5040451;28;20342;-70
2022/07/08 01:53:19;;;;;;;;;;;14.40;99.90;;;;;;5044827;28;19961;-70
2022/07/08 01:55:45;;;;;;;;;;;14.40;99.90;;;;;;5027456;28;19917;-71
2022/07/08 01:58:11;;;;;;;;;;;14.30;99.90;;;;;;5027244;28;19924;-71
2022/07/08 02:00:37;;;;;;;;;;;14.30;99.90;;;;;;5026709;28;20151;-71
2022/07/08 02:03:02;;;;;;;;;;;14.30;99.90;;;;;;5045871;28;19917;-71
2022/07/08 02:05:28;;;;;;;;;;;14.30;99.90;;;;;;5045581;28;20209;-70
2022/07/08 02:07:53;;;;;;;;;;;14.30;99.90;;;;;;5047595;28;19932;-71
2022/07/08 02:10:19;;;;;;;;;;;14.30;99.90;;;;;;5033179;28;20460;-71
2022/07/08 02:12:44;;;;;;;;;;;14.20;99.90;;;;;;5043800;28;19916;-71
2022/07/08 02:15:10;;;;;;;;;;;14.20;99.90;;;;;;5044569;28;19916;-71
2022/07/08 02:17:37;;;;;;;;;;;14.20;99.90;;;;;;5042906;28;20446;-70
2022/07/08 02:20:04;;;;;;;;;;;14.10;99.90;;;;;;5031898;28;19932;-71
2022/07/08 02:22:30;;;;;;;;;;;14.10;99.90;;;;;;5045316;28;19960;-71
2022/07/08 02:24:55;;;;;;;;;;;14.10;99.90;;;;;;5045485;28;19964;-71
2022/07/08 02:27:21;;;;;;;;;;;14.00;99.90;;;;;;5042230;28;19971;-71
2022/07/08 02:29:46;;;;;;;;;;;14.00;99.90;;;;;;5042987;28;19916;-71
2022/07/08 02:32:12;;;;;;;;;;;14.00;99.90;;;;;;5032427;28;19997;-71
2022/07/08 02:34:38;;;;;;;;;;;13.90;99.90;;;;;;5025073;28;20024;-71
2022/07/08 02:37:03;;;;;;;;;;;13.90;99.90;;;;;;5032001;28;19920;-70
2022/07/08 02:39:29;;;;;;;;;;;13.90;99.90;;;;;;5034782;28;20007;-70
2022/07/08 02:41:54;;;;;;;;;;;13.90;99.90;;;;;;5045676;28;19916;-71
2022/07/08 02:44:20;;;;;;;;;;;13.90;99.90;;;;;;5043791;28;19916;-71
2022/07/08 02:46:46;;;;;;;;;;;13.80;99.90;;;;;;5040265;28;19927;-71
2022/07/08 02:49:11;;;;;;;;;;;13.80;99.90;;;;;;5046618;28;20373;-70
2022/07/08 02:51:37;;;;;;;;;;;13.80;99.90;;;;;;5045096;28;19928;-70
2022/07/08 02:54:04;;;;;;;;;;;13.80;99.90;;;;;;5045614;28;19993;-70
2022/07/08 02:56:30;;;;;;;;;;;13.80;99.90;;;;;;5036583;28;19917;-70
2022/07/08 02:58:55;;;;;;;;;;;13.70;99.90;;;;;;5026700;28;19921;-70
2022/07/08 03:01:21;;;;;;;;;;;13.70;99.90;;;;;;5026151;28;19988;-70
2022/07/08 03:03:46;;;;;;;;;;;13.70;99.90;;;;;;5026736;28;19917;-70
2022/07/08 03:06:12;;;;;;;;;;;13.70;99.90;;;;;;5025097;28;19978;-71
2022/07/08 03:08:37;;;;;;;;;;;13.70;99.90;;;;;;5024356;28;19990;-71
2022/07/08 03:11:03;;;;;;;;;;;13.70;99.90;;;;;;5027212;28;19999;-70
2022/07/08 03:13:28;;;;;;;;;;;13.70;99.90;;;;;;5039372;28;20003;-71
2022/07/08 03:15:54;;;;;;;;;;;13.70;99.90;;;;;;5025701;28;20436;-71
2022/07/08 03:18:20;;;;;;;;;;;13.70;99.90;;;;;;5024568;28;20167;-70
2022/07/08 03:20:46;;;;;;;;;;;13.60;99.90;;;;;;5026169;28;19932;-71
2022/07/08 03:23:11;;;;;;;;;;;13.60;99.90;;;;;;5041613;28;19917;-71
2022/07/08 03:25:37;;;;;;;;;;;13.60;99.90;;;;;;5043610;28;19917;-71
2022/07/08 03:28:02;;;;;;;;;;;13.60;99.90;;;;;;5045340;28;19946;-70
2022/07/08 03:30:28;;;;;;;;;;;13.50;99.90;;;;;;5044084;28;20364;-70
2022/07/08 03:32:53;;;;;;;;;;;13.50;99.90;;;;;;5030497;28;19924;-70
2022/07/08 03:35:19;;;;;;;;;;;13.50;99.90;;;;;;5028465;28;19924;-71
2022/07/08 03:37:45;;;;;;;;;;;13.50;99.90;;;;;;5028880;28;19921;-71
2022/07/08 03:42:55;;;;;;;;;;;13.50;99.90;;;;;;5042124;28;19920;-70
2022/07/08 03:45:21;;;;;;;;;;;13.50;99.90;;;;;;5047891;28;19973;-71
2022/07/08 03:47:46;;;;;;;;;;;13.50;99.90;;;;;;5043970;28;19924;-70
2022/07/08 03:50:12;;;;;;;;;;;13.50;99.90;;;;;;5041320;28;20163;-71
2022/07/08 03:52:37;;;;;;;;;;;13.50;99.90;;;;;;5039003;28;19931;-71
2022/07/08 03:55:03;;;;;;;;;;;13.50;99.90;;;;;;5049814;28;19995;-71
2022/07/08 03:57:29;;;;;;;;;;;13.50;99.90;;;;;;5043107;28;20014;-71
2022/07/08 03:59:54;;;;;;;;;;;13.60;99.90;;;;;;5028221;28;19939;-71
2022/07/08 04:02:20;;;;;;;;;;;13.60;99.90;;;;;;5028946;28;19917;-70
2022/07/08 04:04:45;;;;;;;;;;;13.60;99.90;;;;;;5028027;28;19920;-70
2022/07/08 04:07:11;;;;;;;;;;;13.60;99.90;;;;;;5034481;28;19960;-70
2022/07/08 04:09:36;;;;;;;;;;;13.70;99.90;;;;;;5031888;28;20340;-70
2022/07/08 04:12:02;;;;;;;;;;;13.70;99.90;;;;;;5028623;28;20306;-70
2022/07/08 04:14:27;;;;;;;;;;;13.80;99.90;;;;;;5042379;28;20026;-70
2022/07/08 04:16:53;;;;;;;;;;;13.80;99.90;;;;;;5034516;28;19917;-70
2022/07/08 04:19:18;;;;;;;;;;;13.90;99.90;;;;;;5028137;28;20365;-71
2022/07/08 04:21:44;;;;;;;;;;;13.90;99.90;;;;;;5029368;28;19924;-70
2022/07/08 04:24:09;;;;;;;;;;;13.90;99.90;;;;;;5029852;28;19986;-70
2022/07/08 04:26:35;;;;;;;;;;;13.90;99.90;;;;;;5038546;28;19963;-70
2022/07/08 04:29:00;;;;;;;;;;;14.00;99.90;;;;;;5036256;28;19923;-70
2022/07/08 04:31:26;;;;;;;;;;;13.90;99.90;;;;;;5019898;28;19917;-71
2022/07/08 04:33:53;;;;;;;;;;;13.90;99.90;;;;;;5031217;28;19917;-71
2022/07/08 04:36:22;;;;;;;;;;;13.90;99.90;;;;;;5027538;28;19967;-71
2022/07/08 04:38:48;;;;;;;;;;;14.00;99.90;;;;;;5033742;28;19925;-70
2022/07/08 04:41:14;;;;;;;;;;;14.00;99.90;;;;;;5046676;28;20007;-71
2022/07/08 04:43:39;;;;;;;;;;;14.00;99.90;;;;;;5036871;28;20290;-71
2022/07/08 04:46:05;;;;;;;;;;;14.10;99.90;;;;;;5027567;28;19924;-71
2022/07/08 04:48:31;;;;;;;;;;;14.10;99.90;;;;;;5027928;28;19917;-71
2022/07/08 04:50:56;;;;;;;;;;;14.10;99.90;;;;;;5027008;28;19984;-70
2022/07/08 04:53:22;;;;;;;;;;;14.20;99.90;;;;;;5034923;28;19921;-70
2022/07/08 04:55:47;;;;;;;;;;;14.30;99.90;;;;;;5046684;28;20016;-70
2022/07/08 04:58:13;;;;;;;;;;;14.30;99.90;;;;;;5047080;28;19924;-71
2022/07/08 05:00:38;;;;;;;;;;;14.40;99.90;;;;;;5036501;28;19916;-71
2022/07/08 05:03:04;;;;;;;;;;;14.40;99.90;;;;;;5027744;28;19971;-70
2022/07/08 05:05:30;;;;;;;;;;;14.50;99.90;;;;;;5028971;28;19917;-70
2022/07/08 05:07:56;;;;;;;;;;;14.50;99.90;;;;;;5038274;28;19921;-71
2022/07/08 05:10:22;;;;;;;;;;;14.50;99.90;;;;;;5047319;28;19916;-70
2022/07/08 05:12:48;;;;;;;;;;;14.60;99.90;;;;;;5030086;28;20043;-70
2022/07/08 05:15:14;;;;;;;;;;;14.70;99.90;;;;;;5039892;28;19931;-71
2022/07/08 05:17:39;;;;;;;;;;;14.70;99.90;;;;;;5027223;28;19937;-70
2022/07/08 05:20:06;;;;;;;;;;;14.80;99.90;;;;;;5028637;28;19928;-70
2022/07/08 05:22:31;;;;;;;;;;;14.80;99.90;;;;;;5029299;28;20068;-71
2022/07/08 05:24:57;;;;;;;;;;;14.90;99.90;;;;;;5030382;28;20335;-71
2022/07/08 05:27:22;;;;;;;;;;;14.90;99.90;;;;;;5035195;28;19936;-71
2022/07/08 05:29:48;;;;;;;;;;;14.90;99.90;;;;;;5030175;28;20312;-70
2022/07/08 05:32:13;;;;;;;;;;;15.00;99.90;;;;;;5029059;28;19983;-71
2022/07/08 05:34:41;;;;;;;;;;;15.10;99.90;;;;;;5038916;28;20111;-70
2022/07/08 05:37:07;;;;;;;;;;;15.10;99.90;;;;;;5032816;28;20324;-71
2022/07/08 05:39:33;;;;;;;;;;;15.20;99.90;;;;;;5048479;28;19928;-71
2022/07/08 05:41:58;;;;;;;;;;;15.20;99.90;;;;;;5031206;28;19917;-70
2022/07/08 05:44:24;;;;;;;;;;;15.30;99.90;;;;;;5041944;28;19947;-71
2022/07/08 05:46:49;;;;;;;;;;;15.30;99.90;;;;;;5045267;28;19916;-71
2022/07/08 05:49:15;;;;;;;;;;;15.30;99.90;;;;;;5044816;28;20410;-70
2022/07/08 05:51:40;;;;;;;;;;;15.40;99.90;;;;;;5037671;28;19917;-71
2022/07/08 05:54:06;;;;;;;;;;;15.40;99.90;;;;;;5046365;28;19943;-70
2022/07/08 05:56:31;;;;;;;;;;;15.50;99.90;;;;;;5045813;28;19924;-70
2022/07/08 05:58:57;;;;;;;;;;;15.50;99.90;;;;;;5037037;28;19975;-71
2022/07/08 06:01:22;;;;;;;;;;;15.50;99.90;;;;;;5026288;28;20038;-71
2022/07/08 06:03:48;;;;;;;;;;;15.60;99.90;;;;;;5025504;28;20069;-71
2022/07/08 06:06:13;;;;;;;;;;;15.60;99.90;;;;;;5010251;28;19916;-71
2022/07/08 06:08:39;;;;;;;;;;;15.70;99.90;;;;;;5027278;28;19921;-70
2022/07/08 06:11:04;;;;;;;;;;;15.70;99.90;;;;;;5024880;28;20354;-71
2022/07/08 06:13:30;;;;;;;;;;;15.80;99.90;;;;;;5034903;28;20246;-71
2022/07/08 06:15:55;;;;;;;;;;;15.90;99.90;;;;;;5044716;28;19928;-70
2022/07/08 06:18:21;;;;;;;;;;;15.90;99.90;;;;;;5044166;28;20409;-71
2022/07/08 06:20:46;;;;;;;;;;;16.00;99.90;;;;;;5029852;28;19924;-71
2022/07/08 06:23:12;;;;;;;;;;;16.00;99.90;;;;;;5047465;28;19917;-71
2022/07/08 06:25:37;;;;;;;;;;;16.10;99.90;;;;;;5044394;28;19939;-70
2022/07/08 06:28:03;;;;;;;;;;;16.10;99.90;;;;;;5045347;28;20355;-71
2022/07/08 06:30:29;;;;;;;;;;;16.20;99.90;;;;;;5036289;28;19916;-71
2022/07/08 06:32:55;;;;;;;;;;;16.30;99.90;;;;;;5028422;28;20000;-72
2022/07/08 06:35:20;;;;;;;;;;;16.30;99.90;;;;;;5044861;28;20289;-72
2022/07/08 06:37:46;;;;;;;;;;;16.40;99.90;;;;;;5027366;28;20049;-72
2022/07/08 06:40:11;;;;;;;;;;;16.50;99.90;;;;;;5025256;28;20115;-72
2022/07/08 06:42:37;;;;;;;;;;;16.50;99.90;;;;;;5025994;28;20259;-72
2022/07/08 06:45:02;;;;;;;;;;;16.60;99.90;;;;;;5038989;28;19993;-72
2022/07/08 06:47:28;;;;;;;;;;;16.70;99.90;;;;;;5039536;28;19921;-72
2022/07/08 06:49:53;;;;;;;;;;;16.80;99.90;;;;;;5045847;28;20361;-72
2022/07/08 06:52:19;;;;;;;;;;;16.80;99.90;;;;;;5046942;28;19932;-72
2022/07/08 06:54:45;;;;;;;;;;;16.90;99.90;;;;;;5043652;28;19923;-72
2022/07/08 06:57:10;;;;;;;;;;;16.90;99.90;;;;;;5025873;28;20258;-72
2022/07/08 06:59:36;;;;;;;;;;;17.00;99.90;;;;;;5025099;28;19921;-72
2022/07/08 07:02:02;;;;;;;;;;;17.00;99.90;;;;;;5025824;28;19928;-72
2022/07/08 07:04:28;;;;;;;;;;;17.10;99.90;;;;;;5031919;28;19916;-72
2022/07/08 07:06:54;;;;;;;;;;;17.10;99.90;;;;;;5045906;28;19955;-72
2022/07/08 07:09:19;;;;;;;;;;;17.20;99.90;;;;;;5044575;28;20365;-72
2022/07/08 07:11:45;;;;;;;;;;;17.20;99.90;;;;;;5041629;28;20043;-72
2022/07/08 07:14:10;;;;;;;;;;;17.20;99.90;;;;;;5037443;28;20300;-72
2022/07/08 07:16:36;;;;;;;;;;;17.30;99.90;;;;;;5026740;28;19927;-72
2022/07/08 07:19:02;;;;;;;;;;;17.30;99.90;;;;;;5023660;28;19927;-72
2022/07/08 07:21:27;;;;;;;;;;;17.30;99.90;;;;;;5029454;28;19917;-72
2022/07/08 07:23:53;;;;;;;;;;;17.40;99.90;;;;;;5024096;28;19921;-72
2022/07/08 07:26:18;;;;;;;;;;;17.50;99.90;;;;;;5026486;28;19943;-72
2022/07/08 07:28:44;;;;;;;;;;;17.50;99.90;;;;;;5030617;28;19967;-72
2022/07/08 07:31:09;;;;;;;;;;;17.60;99.90;;;;;;5025899;28;19979;-72
2022/07/08 07:33:35;;;;;;;;;;;17.60;99.90;;;;;;5026227;28;19924;-72
2022/07/08 07:36:00;;;;;;;;;;;17.60;99.90;;;;;;5043624;28;20241;-72
2022/07/08 07:38:26;;;;;;;;;;;17.60;99.90;;;;;;5027443;28;19925;-71
2022/07/08 07:40:51;;;;;;;;;;;17.60;99.90;;;;;;5037051;28;19921;-72
2022/07/08 07:43:17;;;;;;;;;;;17.70;99.90;;;;;;5043712;28;19920;-72
2022/07/08 07:45:45;;;;;;;;;;;17.70;99.90;;;;;;5033288;28;19917;-72
2022/07/08 07:48:11;;;;;;;;;;;17.70;99.90;;;;;;5024201;28;19979;-72
2022/07/08 07:50:36;;;;;;;;;;;17.70;99.90;;;;;;5008265;28;20238;-72
2022/07/08 07:53:02;;;;;;;;;;;17.80;99.90;;;;;;5023563;28;19927;-72
2022/07/08 07:55:27;;;;;;;;;;;17.80;99.90;;;;;;5029072;28;19917;-73
2022/07/08 07:57:53;;;;;;;;;;;17.80;99.90;;;;;;5025914;28;20366;-72
2022/07/08 08:00:18;;;;;;;;;;;17.90;99.90;;;;;;5024828;28;19917;-71
2022/07/08 08:02:44;;;;;;;;;;;17.90;99.90;;;;;;5024607;28;20455;-72
2022/07/08 08:05:10;;;;;;;;;;;17.90;99.90;;;;;;5030687;28;19921;-72
2022/07/08 08:07:39;;;;;;;;;;;18.00;99.90;;;;;;5023962;28;19971;-72
2022/07/08 08:10:05;;;;;;;;;;;18.00;99.90;;;;;;5025787;28;19987;-72
2022/07/08 08:12:30;;;;;;;;;;;18.10;99.90;;;;;;5025879;28;19917;-72
2022/07/08 08:14:56;;;;;;;;;;;18.10;99.90;;;;;;5045106;28;19925;-72
2022/07/08 08:17:21;;;;;;;;;;;18.10;99.90;;;;;;5048510;28;19968;-71
2022/07/08 08:19:47;;;;;;;;;;;18.10;99.90;;;;;;5047738;28;20019;-72
2022/07/08 08:22:12;;;;;;;;;;;18.20;99.90;;;;;;5036509;28;19931;-71
2022/07/08 08:24:38;;;;;;;;;;;18.20;99.90;;;;;;5047454;28;19925;-72
2022/07/08 08:27:03;;;;;;;;;;;18.20;99.90;;;;;;5047449;28;19929;-72
2022/07/08 08:29:29;;;;;;;;;;;18.20;99.90;;;;;;5038236;28;19994;-72
2022/07/08 08:31:55;;;;;;;;;;;18.20;99.90;;;;;;5036259;28;19917;-72
2022/07/08 08:34:20;;;;;;;;;;;18.20;99.90;;;;;;5043597;28;20339;-72
2022/07/08 08:36:46;;;;;;;;;;;18.20;99.90;;;;;;5048514;28;19963;-72
2022/07/08 08:39:11;;;;;;;;;;;18.20;99.90;;;;;;5047225;28;19967;-72
2022/07/08 08:41:38;;;;;;;;;;;18.30;99.90;;;;;;5037674;28;19917;-72
2022/07/08 08:44:03;;;;;;;;;;;18.30;99.90;;;;;;5042874;28;20373;-72
2022/07/08 08:46:31;;;;;;;;;;;18.30;99.90;;;;;;5047143;28;19917;-72
2022/07/08 08:48:56;;;;;;;;;;;18.40;99.90;;;;;;5043006;28;20313;-71
2022/07/08 08:51:22;;;;;;;;;;;18.50;99.90;;;;;;5044130;28;19995;-71
2022/07/08 08:53:48;;;;;;;;;;;18.60;99.90;;;;;;5047243;28;19920;-72
2022/07/08 08:56:15;;;;;;;;;;;18.60;99.90;;;;;;5046316;28;19920;-72
2022/07/08 08:58:46;;;;;;;;;;;18.60;99.90;;;;;;5043622;28;19920;-71
2022/07/08 09:01:12;;;;;;;;;;;18.60;99.90;;;;;;5028674;28;19943;-71
2022/07/08 09:03:37;;;;;;;;;;;18.60;99.90;;;;;;5029015;28;19921;-71
2022/07/08 09:06:03;;;;;;;;;;;18.60;99.90;;;;;;5047740;28;20011;-71
2022/07/08 09:08:29;;;;;;;;;;;18.70;99.90;;;;;;5047171;28;19939;-71
2022/07/08 09:10:54;;;;;;;;;;;18.70;99.90;;;;;;5047643;28;19916;-72
2022/07/08 09:13:23;;;;;;;;;;;18.80;99.90;;;;;;5042092;28;19924;-72
2022/07/08 09:15:54;;;;;;;;;;;18.90;99.90;;;;;;5045926;28;19928;-71
2022/07/08 09:18:21;;;;;;;;;;;18.90;99.90;;;;;;5031001;28;19940;-71
2022/07/08 09:20:47;;;;;;;;;;;18.90;99.90;;;;;;5027079;28;20015;-72
2022/07/08 09:23:20;;;;;;;;;;;19.00;99.90;;;;;;5029593;28;19921;-72
2022/07/08 09:25:47;;;;;;;;;;;19.00;99.90;;;;;;5047179;28;19943;-72
2022/07/08 09:28:13;;;;;;;;;;;19.10;99.90;;;;;;5046905;28;20066;-71
2022/07/08 09:30:39;;;;;;;;;;;19.10;99.90;;;;;;5048165;28;19924;-72
2022/07/08 09:33:04;;;;;;;;;;;19.10;99.90;;;;;;5029949;28;19916;-71
2022/07/08 09:35:35;;;;;;;;;;;19.20;99.90;;;;;;5046442;28;19936;-72
2022/07/08 09:38:01;;;;;;;;;;;19.20;99.90;;;;;;5047164;28;20247;-71
2022/07/08 09:40:27;;;;;;;;;;;19.30;99.90;;;;;;5023573;28;19917;-71
2022/07/08 09:42:52;;;;;;;;;;;19.40;99.90;;;;;;5029901;28;19917;-72
2022/07/08 09:45:18;;;;;;;;;;;19.40;99.90;;;;;;5046373;28;19917;-72
2022/07/08 09:47:43;;;;;;;;;;;19.40;99.90;;;;;;5047632;28;20007;-71
2022/07/08 09:50:09;;;;;;;;;;;19.50;99.90;;;;;;5043041;28;19960;-71
2022/07/08 09:52:34;;;;;;;;;;;19.50;99.90;;;;;;5035887;28;19916;-71
2022/07/08 09:55:03;;;;;;;;;;;19.50;99.90;;;;;;5026966;28;19982;-72
2022/07/08 09:57:29;;;;;;;;;;;19.50;99.90;;;;;;5028616;28;19966;-71
2022/07/08 09:59:55;;;;;;;;;;;19.50;99.90;;;;;;5026208;28;19916;-71
2022/07/08 10:02:21;;;;;;;;;;;19.50;99.90;;;;;;5028400;28;19924;-71
2022/07/08 10:04:53;;;;;;;;;;;19.50;99.90;;;;;;5009536;28;20293;-72
2022/07/08 10:07:18;;;;;;;;;;;19.50;99.90;;;;;;5033691;28;20029;-71
2022/07/08 10:09:44;;;;;;;;;;;19.50;99.90;;;;;;5045751;28;20522;-71
2022/07/08 10:12:16;;;;;;;;;;;19.50;99.90;;;;;;5048721;28;19917;-71
2022/07/08 10:14:51;;;;;;;;;;;19.60;99.90;;;;;;5070187;22;19925;-85
2022/07/08 10:17:20;;;;;;;;;;;19.50;99.90;;;;;;5030894;28;19970;-84
2022/07/08 10:19:46;;;;;;;;;;;19.60;99.90;;;;;;5041943;28;19917;-85
2022/07/08 10:22:12;;;;;;;;;;;19.60;99.90;;;;;;5050813;28;20202;-85
2022/07/08 10:24:42;;;;;;;;;;;19.80;99.90;;;;;;5030943;28;20179;-85
2022/07/08 10:27:08;;;;;;;;;;;20.00;99.90;;;;;;5027336;28;20117;-85
2022/07/08 10:29:39;;;;;;;;;;;20.10;99.90;;;;;;5008375;28;20344;-85
2022/07/08 10:32:21;;;;;;;;;;;20.20;99.90;;;;;;5028029;28;19916;-85
2022/07/08 10:35:09;;;;;;;;;;;20.20;99.90;;;;;;5041818;28;19952;-85
2022/07/08 10:38:10;;;;;;;;;;;20.30;99.90;;;;;;5016575;28;19927;-86
2022/07/08 10:40:41;;;;;;;;;;;20.40;99.90;;;;;;4968639;28;19918;-85
2022/07/08 10:43:19;;;;;;;;;;;20.50;99.90;;;;;;4985151;28;20307;-86
2022/07/08 10:45:59;;;;;;;;;;;20.50;99.90;;;;;;5030407;28;19928;-84
2022/07/08 10:48:45;;;;;;;;;;;20.50;99.90;;;;;;5050884;28;19917;-86
2022/07/08 10:51:20;;;;;;;;;;;20.60;99.90;;;;;;5028501;28;19916;-85
2022/07/08 10:53:46;;;;;;;;;;;20.60;99.90;;;;;;5008008;28;20072;-86
2022/07/08 10:56:12;;;;;;;;;;;20.60;99.90;;;;;;5032546;28;20286;-85
2022/07/08 10:58:57;;;;;;;;;;;20.60;99.90;;;;;;5015207;28;19921;-84
2022/07/08 11:01:25;;;;;;;;;;;20.50;99.90;;;;;;5000047;28;19925;-85
2022/07/08 11:03:51;;;;;;;;;;;20.50;99.90;;;;;;5032098;28;19921;-85
2022/07/08 11:06:39;;;;;;;;;;;20.50;99.90;;;;;;5032228;28;19921;-85
2022/07/08 11:09:12;;;;;;;;;;;20.40;99.90;;;;;;5033799;28;20011;-86
2022/07/08 11:11:41;;;;;;;;;;;20.40;99.90;;;;;;5029742;28;19970;-86
2022/07/08 11:14:08;;;;;;;;;;;20.30;99.90;;;;;;5002724;28;19924;-85
2022/07/08 11:16:37;;;;;;;;;;;20.30;99.90;;;;;;4981323;28;20371;-84
2022/07/08 11:19:07;;;;;;;;;;;20.20;99.90;;;;;;5007649;28;19943;-85
2022/07/08 11:21:42;;;;;;;;;;;20.20;99.90;;;;;;5050577;28;19916;-85
2022/07/08 11:24:08;;;;;;;;;;;20.40;99.90;;;;;;5047207;28;19923;-86
2022/07/08 11:26:41;;;;;;;;;;;20.50;99.90;;;;;;5024364;28;20007;-85
2022/07/08 11:29:14;;;;;;;;;;;20.50;99.90;;;;;;4999888;28;19921;-86
2022/07/08 11:31:45;;;;;;;;;;;20.40;99.90;;;;;;5015737;28;19921;-85
2022/07/08 11:34:24;;;;;;;;;;;20.50;99.90;;;;;;5024287;28;19916;-85
2022/07/08 11:36:54;;;;;;;;;;;20.40;99.90;;;;;;5051133;28;19928;-86
2022/07/08 11:39:19;;;;;;;;;;;20.50;99.90;;;;;;5012119;28;19974;-85
2022/07/08 11:41:45;;;;;;;;;;;20.60;99.90;;;;;;5025053;28;19917;-86
2022/07/08 11:44:11;;;;;;;;;;;20.80;99.90;;;;;;5026943;28;19917;-85
2022/07/08 11:46:43;;;;;;;;;;;20.80;99.90;;;;;;5010962;28;20372;-85
2022/07/08 11:49:09;;;;;;;;;;;20.80;99.90;;;;;;5020442;28;19925;-84
2022/07/08 11:51:38;;;;;;;;;;;21.00;99.90;;;;;;5012283;28;19918;-85
2022/07/08 11:54:07;;;;;;;;;;;20.90;99.90;;;;;;5002788;28;19928;-85
2022/07/08 11:56:38;;;;;;;;;;;21.00;99.90;;;;;;4998075;28;19917;-84
2022/07/08 11:59:19;;;;;;;;;;;20.90;99.90;;;;;;5039640;28;20015;-86
2022/07/08 12:01:44;;;;;;;;;;;21.10;99.90;;;;;;5019520;28;19927;-86
2022/07/08 12:04:10;;;;;;;;;;;21.20;99.90;;;;;;5010197;28;19917;-86
2022/07/08 12:06:44;;;;;;;;;;;21.20;99.90;;;;;;5045625;28;19999;-86
2022/07/08 12:09:10;;;;;;;;;;;21.30;99.90;;;;;;5035574;28;20382;-86
2022/07/08 12:11:39;;;;;;;;;;;21.50;99.90;;;;;;5032118;28;19947;-87
2022/07/08 12:14:14;;;;;;;;;;;21.50;99.90;;;;;;5022475;28;20271;-87
2022/07/08 12:16:44;;;;;;;;;;;21.70;99.90;;;;;;4979475;28;20063;-86
2022/07/08 12:19:29;;;;;;;;;;;21.70;99.90;;;;;;5013315;28;19929;-86
2022/07/08 12:22:00;;;;;;;;;;;21.90;99.90;;;;;;5015434;28;20004;-84
2022/07/08 12:24:31;;;;;;;;;;;21.90;99.90;;;;;;5016439;28;19917;-86
2022/07/08 12:26:58;;;;;;;;;;;21.90;99.90;;;;;;4997017;28;19924;-86
2022/07/08 12:29:24;;;;;;;;;;;21.80;99.90;;;;;;5015229;28;20466;-86
2022/07/08 12:31:50;;;;;;;;;;;22.00;99.90;;;;;;4981104;28;20264;-86
2022/07/08 12:34:19;;;;;;;;;;;22.00;99.90;;;;;;4995701;28;20007;-86
2022/07/08 12:36:45;;;;;;;;;;;22.10;99.90;;;;;;4996413;28;20415;-85
2022/07/08 12:39:40;;;;;;;;;;;22.20;99.90;;;;;;5005678;28;20003;-86
2022/07/08 12:42:09;;;;;;;;;;;22.30;99.90;;;;;;4980666;28;20395;-85
2022/07/08 12:44:39;;;;;;;;;;;22.30;99.90;;;;;;5027493;28;19975;-86
2022/07/08 12:47:08;;;;;;;;;;;22.20;99.90;;;;;;5021629;28;19928;-85
2022/07/08 12:49:40;;;;;;;;;;;22.20;99.90;;;;;;5050312;28;19924;-86
2022/07/08 12:52:12;;;;;;;;;;;22.00;99.90;;;;;;5053293;28;19916;-85
2022/07/08 12:54:42;;;;;;;;;;;22.00;99.90;;;;;;5008090;28;19928;-86
2022/07/08 12:57:10;;;;;;;;;;;22.20;99.90;;;;;;5046497;28;19917;-86
2022/07/08 12:59:38;;;;;;;;;;;22.00;99.90;;;;;;5035349;28;19916;-86
2022/07/08 13:02:07;;;;;;;;;;;22.00;99.90;;;;;;5018689;28;19917;-86
2022/07/08 13:04:40;;;;;;;;;;;21.90;99.90;;;;;;5009989;28;19917;-85
2022/07/08 13:07:12;;;;;;;;;;;22.00;99.90;;;;;;5053675;28;19917;-85
2022/07/08 13:09:40;;;;;;;;;;;21.90;99.90;;;;;;5042154;28;19978;-85
2022/07/08 13:12:10;;;;;;;;;;;21.90;99.90;;;;;;5040095;28;19920;-86
2022/07/08 13:14:39;;;;;;;;;;;22.20;99.90;;;;;;5007035;28;19924;-85
2022/07/08 13:17:07;;;;;;;;;;;22.30;99.90;;;;;;4998213;28;19925;-85
2022/07/08 13:19:42;;;;;;;;;;;22.40;99.90;;;;;;4994788;28;19917;-86
2022/07/08 13:22:16;;;;;;;;;;;22.40;99.90;;;;;;5044365;28;19924;-85
2022/07/08 13:24:44;;;;;;;;;;;22.30;99.90;;;;;;5033954;28;19921;-86
2022/07/08 13:27:19;;;;;;;;;;;22.40;99.90;;;;;;5019609;28;19971;-87
2022/07/08 13:29:53;;;;;;;;;;;22.50;99.90;;;;;;5040079;28;20404;-86
2022/07/08 13:32:18;;;;;;;;;;;22.50;99.90;;;;;;5013025;28;20007;-86
2022/07/08 13:34:44;;;;;;;;;;;22.60;99.90;;;;;;5051932;28;20018;-87
2022/07/08 13:37:12;;;;;;;;;;;22.80;99.90;;;;;;5018479;28;19996;-86
2022/07/08 13:39:38;;;;;;;;;;;22.90;99.90;;;;;;5026035;28;19924;-85
2022/07/08 13:42:12;;;;;;;;;;;22.80;99.90;;;;;;5034310;28;19950;-85
2022/07/08 13:44:37;;;;;;;;;;;22.80;99.90;;;;;;5013194;28;19955;-86
2022/07/08 13:47:10;;;;;;;;;;;22.70;99.90;;;;;;4994837;28;19960;-86
2022/07/08 13:49:39;;;;;;;;;;;22.60;99.90;;;;;;5009180;28;19917;-86
2022/07/08 13:52:08;;;;;;;;;;;22.40;99.90;;;;;;4999783;28;19928;-85
2022/07/08 13:54:41;;;;;;;;;;;22.40;99.90;;;;;;4979873;28;20261;-86
2022/07/08 13:57:16;;;;;;;;;;;22.40;99.90;;;;;;5017972;28;19924;-86
2022/07/08 13:59:45;;;;;;;;;;;22.50;99.90;;;;;;5015609;28;19917;-86
2022/07/08 14:02:26;;;;;;;;;;;22.50;99.90;;;;;;5018150;28;20348;-86
2022/07/08 14:05:00;;;;;;;;;;;22.40;99.90;;;;;;5035167;28;19924;-86
2022/07/08 14:07:32;;;;;;;;;;;22.50;99.90;;;;;;5028462;28;19917;-86
2022/07/08 14:10:00;;;;;;;;;;;22.40;99.90;;;;;;5019984;28;19923;-86
2022/07/08 14:12:38;;;;;;;;;;;22.50;99.90;;;;;;5029929;28;19916;-87
2022/07/08 14:15:14;;;;;;;;;;;22.60;99.90;;;;;;5001455;28;20383;-87
2022/07/08 14:17:43;;;;;;;;;;;22.60;99.90;;;;;;5015727;28;19921;-86
2022/07/08 14:20:08;;;;;;;;;;;22.60;99.90;;;;;;5017347;28;19916;-86